Rechercher aéroport 
image banner adimage banner adimage banner ad
image banner ad

KCMA - Camarillo

Situé à Camarillo, United States

ICAO - CMA, IATA -

Données fournies par Airmate  

Information générale

Coordonnées: N34°12'50" W119°5'40"
Élévation : 77 feet MSL.
Variation magnétique : 14° East
Voir autres Aéroports à California

Données opérationnelles

Special qualification required
Heure actuelle UTC:
Heure actuelle locale:
Météo
METAR: KCMA 251630Z 00000KT 7SM OVC010 21/15 A2999 RMK AO2 T02060150
TAF: KCMA 251621Z 2516/2612 VRB05KT 6SM BR OVC008 FM251800 VRB05KT 6SM BR OVC011 FM252000 25010KT P6SM SCT014 BKN120 FM260300 25006KT P6SM BKN007 BKN120
Voir NOTAMs / SUP AIP / TFR affectant cet aéroport [VIEW]
Fréquences de communication: [VIEW]

Pistes:

Identifiant RWYQFULongueur (ft)Largeur (ft)SurfaceLDA (ft)
0890°6013150OTHER
26270°6013150OTHER

Coordonnées de l'aéroport

Adresse: Camarillo United States

Autres services d'aviation

Écoles de pilotage

Channel Islands Aviation, Inc

Channel Islands Aviation, Inc
cia@flycia.com+1(805)987-1301

Camarillo Flight Instruction

Camarillo Flight Instruction

Atp Flight School (800-All-Atps)

Atp Flight School (800-All-Atps)

Vue satellite de KCMA